createdAt,value
2018-10-05T00:00:16.143Z,14.30
2018-10-05T00:01:20.326Z,14.29
2018-10-05T00:02:24.416Z,14.29
2018-10-05T00:03:28.534Z,14.28
2018-10-05T00:04:32.730Z,14.28
2018-10-05T00:05:36.942Z,14.29
2018-10-05T00:06:41.009Z,14.27
2018-10-05T00:07:46.385Z,14.28
2018-10-05T00:08:50.768Z,14.27
2018-10-05T00:09:56.101Z,14.26
2018-10-05T00:11:00.472Z,14.26
2018-10-05T00:12:04.646Z,14.26
2018-10-05T00:13:08.729Z,14.26
2018-10-05T00:14:12.793Z,14.24
2018-10-05T00:15:16.889Z,14.25
2018-10-05T00:16:22.195Z,14.25
2018-10-05T00:17:27.332Z,14.24
2018-10-05T00:18:31.649Z,14.26
2018-10-05T00:19:35.769Z,14.25
2018-10-05T00:20:39.933Z,14.24
2018-10-05T00:21:44.042Z,14.23
2018-10-05T00:22:49.101Z,14.22
2018-10-05T00:23:53.926Z,14.22
2018-10-05T00:24:58.023Z,14.22
2018-10-05T00:26:02.201Z,14.20
2018-10-05T00:27:06.372Z,14.19
2018-10-05T00:28:10.426Z,14.18
2018-10-05T00:29:14.483Z,14.17
2018-10-05T00:30:20.020Z,14.17
2018-10-05T00:31:24.157Z,14.17
2018-10-05T00:32:28.360Z,14.16
2018-10-05T00:33:33.290Z,14.16
2018-10-05T00:34:37.401Z,14.16
2018-10-05T00:35:41.536Z,14.15
2018-10-05T00:36:46.669Z,14.14
2018-10-05T00:37:52.318Z,14.14
2018-10-05T00:38:56.769Z,14.14
2018-10-05T00:40:00.861Z,14.14
2018-10-05T00:41:06.116Z,14.13
2018-10-05T00:42:10.235Z,14.13
2018-10-05T00:43:14.285Z,14.10
2018-10-05T00:44:18.838Z,14.10
2018-10-05T00:45:22.937Z,14.10
2018-10-05T00:46:27.740Z,14.09
2018-10-05T00:47:32.065Z,14.09
2018-10-05T00:48:36.897Z,14.07
2018-10-05T00:49:40.974Z,14.07
2018-10-05T00:50:45.091Z,14.05
2018-10-05T00:51:50.354Z,14.05
2018-10-05T00:52:54.687Z,14.06
2018-10-05T00:53:58.838Z,14.06
2018-10-05T00:55:03.102Z,14.06
2018-10-05T00:56:07.168Z,14.04
2018-10-05T00:57:11.294Z,14.05
2018-10-05T00:58:15.389Z,14.03
2018-10-05T00:59:19.572Z,14.04
2018-10-05T01:00:23.848Z,14.03
2018-10-05T01:01:28.088Z,14.02
2018-10-05T01:02:34.607Z,14.03
2018-10-05T01:03:39.525Z,14.02
2018-10-05T01:04:43.584Z,14.02
2018-10-05T01:05:47.717Z,14.01
2018-10-05T01:06:51.935Z,14.01
2018-10-05T01:07:56.005Z,14.01
2018-10-05T01:09:00.175Z,14.01
2018-10-05T01:10:05.066Z,14.00
2018-10-05T01:11:09.291Z,14.01
2018-10-05T01:12:13.345Z,14.00
2018-10-05T01:13:17.394Z,14.00
2018-10-05T01:14:21.441Z,14.00
2018-10-05T01:15:26.354Z,14.00
2018-10-05T01:16:30.498Z,13.99
2018-10-05T01:17:34.625Z,13.98
2018-10-05T01:18:39.408Z,13.98
2018-10-05T01:19:43.734Z,13.98
2018-10-05T01:20:50.300Z,13.97
2018-10-05T01:21:55.268Z,13.96
2018-10-05T01:22:59.340Z,13.96
2018-10-05T01:24:04.528Z,13.95
2018-10-05T01:25:08.631Z,13.94
2018-10-05T01:26:13.837Z,13.93
2018-10-05T01:27:17.978Z,13.94
2018-10-05T01:28:22.062Z,13.94
2018-10-05T01:29:26.117Z,13.94
2018-10-05T01:30:30.319Z,13.94
2018-10-05T01:31:35.313Z,13.93
2018-10-05T01:32:41.661Z,13.92
2018-10-05T01:33:45.810Z,13.92
2018-10-05T01:34:50.077Z,13.90
2018-10-05T01:35:54.818Z,13.89
2018-10-05T01:36:59.442Z,13.88
2018-10-05T01:38:03.543Z,13.88
2018-10-05T01:39:07.867Z,13.88
2018-10-05T01:40:12.063Z,13.88
2018-10-05T01:41:16.161Z,13.87
2018-10-05T01:42:21.068Z,13.86
2018-10-05T01:43:28.853Z,13.86
2018-10-05T01:44:32.993Z,13.86
2018-10-05T01:45:37.086Z,13.86
2018-10-05T01:46:41.222Z,13.86
2018-10-05T01:47:45.431Z,13.85
2018-10-05T01:48:49.568Z,13.86
2018-10-05T01:49:53.983Z,13.85
2018-10-05T01:50:58.084Z,13.85
2018-10-05T01:52:02.381Z,13.84
2018-10-05T01:53:06.494Z,13.83
2018-10-05T01:54:10.638Z,13.84
2018-10-05T01:55:14.767Z,13.84
2018-10-05T01:56:18.829Z,13.83
2018-10-05T01:57:22.987Z,13.83
2018-10-05T01:58:28.106Z,13.82
2018-10-05T01:59:32.252Z,13.82
2018-10-05T02:00:36.307Z,13.81
2018-10-05T02:01:40.390Z,13.81
2018-10-05T02:02:44.557Z,13.81
2018-10-05T02:03:48.687Z,13.81
2018-10-05T02:04:52.793Z,13.81
2018-10-05T02:05:58.095Z,13.79
2018-10-05T02:07:02.349Z,13.79
2018-10-05T02:08:07.602Z,13.79
2018-10-05T02:09:12.202Z,13.78
2018-10-05T02:10:16.259Z,13.77
2018-10-05T02:11:20.301Z,13.77
2018-10-05T02:12:24.522Z,13.77
2018-10-05T02:13:28.607Z,13.76
2018-10-05T02:14:32.725Z,13.76
2018-10-05T02:15:37.586Z,13.75
2018-10-05T02:16:41.718Z,13.74
2018-10-05T02:17:46.412Z,13.73
2018-10-05T02:18:51.004Z,13.72
2018-10-05T02:19:55.146Z,13.71
2018-10-05T02:21:01.217Z,13.70
2018-10-05T02:22:06.299Z,13.69
2018-10-05T02:23:10.399Z,13.68
2018-10-05T02:24:14.548Z,13.67
2018-10-05T02:25:18.653Z,13.67
2018-10-05T02:26:23.103Z,13.66
2018-10-05T02:27:28.445Z,13.66
2018-10-05T02:28:33.061Z,13.64
2018-10-05T02:29:40.065Z,13.64
2018-10-05T02:30:46.480Z,13.64
2018-10-05T02:31:50.541Z,13.62
2018-10-05T02:32:55.705Z,13.62
2018-10-05T02:33:59.786Z,13.61
2018-10-05T02:35:06.480Z,13.61
2018-10-05T02:36:11.091Z,13.60
2018-10-05T02:37:15.158Z,13.60
2018-10-05T02:38:19.938Z,13.60
2018-10-05T02:39:24.804Z,13.60
2018-10-05T02:40:28.930Z,13.60
2018-10-05T02:41:33.835Z,13.60
2018-10-05T02:42:37.986Z,13.59
2018-10-05T02:43:42.110Z,13.58
2018-10-05T02:44:46.269Z,13.57
2018-10-05T02:45:50.376Z,13.56
2018-10-05T02:46:54.569Z,13.55
2018-10-05T02:47:58.646Z,13.55
2018-10-05T02:49:03.043Z,13.56
2018-10-05T02:50:08.149Z,13.54
2018-10-05T02:51:13.097Z,13.54
2018-10-05T02:52:17.165Z,13.53
2018-10-05T02:53:22.378Z,13.54
2018-10-05T02:54:26.580Z,13.53
2018-10-05T02:55:30.745Z,13.53
2018-10-05T02:56:35.507Z,13.52
2018-10-05T02:57:39.677Z,13.52
2018-10-05T02:58:43.729Z,13.51
2018-10-05T02:59:47.806Z,13.50
2018-10-05T03:01:03.262Z,13.50
2018-10-05T03:02:20.472Z,13.48
2018-10-05T03:03:24.509Z,13.47
2018-10-05T03:04:28.742Z,13.45
2018-10-05T03:05:32.860Z,13.45
2018-10-05T03:06:37.172Z,13.45
2018-10-05T03:07:41.253Z,13.45
2018-10-05T03:08:46.465Z,13.44
2018-10-05T03:09:50.642Z,13.44
2018-10-05T03:10:55.162Z,13.43
2018-10-05T03:12:00.433Z,13.42
2018-10-05T03:13:04.606Z,13.44
2018-10-05T03:14:08.739Z,13.44
2018-10-05T03:15:12.863Z,13.45
2018-10-05T03:16:17.465Z,13.43
2018-10-05T03:17:22.418Z,13.44
2018-10-05T03:18:26.512Z,13.42
2018-10-05T03:19:31.013Z,13.42
2018-10-05T03:20:35.184Z,13.42
2018-10-05T03:21:39.846Z,13.41
2018-10-05T03:22:43.921Z,13.40
2018-10-05T03:23:49.330Z,13.41
2018-10-05T03:24:53.447Z,13.39
2018-10-05T03:25:58.124Z,13.39
2018-10-05T03:27:02.146Z,13.38
2018-10-05T03:28:06.482Z,13.38
2018-10-05T03:29:10.595Z,13.38
2018-10-05T03:30:14.767Z,13.38
2018-10-05T03:31:19.737Z,13.38
2018-10-05T03:32:23.865Z,13.38
2018-10-05T03:33:28.574Z,13.38
2018-10-05T03:34:32.635Z,13.37
2018-10-05T03:35:36.703Z,13.37
2018-10-05T03:36:40.734Z,13.35
2018-10-05T03:37:45.432Z,13.36
2018-10-05T03:38:50.368Z,13.34
2018-10-05T03:39:54.552Z,13.33
2018-10-05T03:40:59.694Z,13.31
2018-10-05T03:42:03.934Z,13.32
2018-10-05T03:43:08.233Z,13.31
2018-10-05T03:44:12.337Z,13.31
2018-10-05T03:45:16.416Z,13.30
2018-10-05T03:46:20.539Z,13.29
2018-10-05T03:47:24.596Z,13.28
2018-10-05T03:48:28.820Z,13.28
2018-10-05T03:49:33.956Z,13.28
2018-10-05T03:50:38.060Z,13.26
2018-10-05T03:51:42.843Z,13.25
2018-10-05T03:52:47.775Z,13.25
2018-10-05T03:53:51.982Z,13.25
2018-10-05T03:54:56.139Z,13.23
2018-10-05T03:56:00.310Z,13.23
2018-10-05T03:57:04.651Z,13.23
2018-10-05T03:58:09.526Z,13.22
2018-10-05T03:59:13.581Z,13.22
2018-10-05T04:00:18.237Z,13.22
2018-10-05T04:01:22.497Z,13.21
2018-10-05T04:02:26.617Z,13.22
2018-10-05T04:03:30.800Z,13.22
2018-10-05T04:04:35.043Z,13.22
2018-10-05T04:05:39.202Z,13.22
2018-10-05T04:06:43.261Z,13.20
2018-10-05T04:07:47.458Z,13.21
2018-10-05T04:08:51.589Z,13.21
2018-10-05T04:09:55.683Z,13.21
2018-10-05T04:10:59.878Z,13.21
2018-10-05T04:12:04.133Z,13.20
2018-10-05T04:13:08.277Z,13.19
2018-10-05T04:14:12.910Z,13.19
2018-10-05T04:15:17.219Z,13.19
2018-10-05T04:16:22.296Z,13.18
2018-10-05T04:17:26.378Z,13.19
2018-10-05T04:18:30.418Z,13.18
2018-10-05T04:19:34.675Z,13.18
2018-10-05T04:20:38.761Z,13.18
2018-10-05T04:21:43.118Z,13.17
2018-10-05T04:22:47.204Z,13.17
2018-10-05T04:23:51.337Z,13.17
2018-10-05T04:24:56.056Z,13.16
2018-10-05T04:26:00.229Z,13.16
2018-10-05T04:27:04.452Z,13.16
2018-10-05T04:28:09.956Z,13.16
2018-10-05T04:29:14.097Z,13.16
2018-10-05T04:30:18.144Z,13.15
2018-10-05T04:31:22.331Z,13.15
2018-10-05T04:32:27.881Z,13.15
2018-10-05T04:33:32.767Z,13.15
2018-10-05T04:34:36.842Z,13.15
2018-10-05T04:35:41.623Z,13.14
2018-10-05T04:36:45.874Z,13.14
2018-10-05T04:37:50.198Z,13.13
2018-10-05T04:38:54.329Z,13.12
2018-10-05T04:40:00.305Z,13.13
2018-10-05T04:41:04.517Z,13.11
2018-10-05T04:42:10.022Z,13.11
2018-10-05T04:43:15.172Z,13.11
2018-10-05T04:44:19.355Z,13.11
2018-10-05T04:45:23.501Z,13.12
2018-10-05T04:46:31.053Z,13.11
2018-10-05T04:47:35.270Z,13.11
2018-10-05T04:48:39.439Z,13.11
2018-10-05T04:49:43.717Z,13.12
2018-10-05T04:50:47.664Z,13.12
2018-10-05T04:51:51.741Z,13.11
2018-10-05T04:52:55.999Z,13.11
2018-10-05T04:54:00.144Z,13.11
2018-10-05T04:55:04.349Z,13.08
2018-10-05T04:56:09.044Z,13.10
2018-10-05T04:57:13.371Z,13.10
2018-10-05T04:58:17.593Z,13.10
2018-10-05T04:59:21.753Z,13.10
2018-10-05T05:00:33.700Z,13.10
2018-10-05T05:01:37.780Z,13.09
2018-10-05T05:02:42.059Z,13.08
2018-10-05T05:03:46.346Z,13.06
2018-10-05T05:04:50.412Z,13.06
2018-10-05T05:05:55.401Z,13.06
2018-10-05T05:06:59.509Z,13.05
2018-10-05T05:08:04.188Z,13.05
2018-10-05T05:09:10.260Z,13.04
2018-10-05T05:10:14.959Z,13.04
2018-10-05T05:11:19.087Z,13.04
2018-10-05T05:12:23.306Z,13.03
2018-10-05T05:13:27.401Z,13.03
2018-10-05T05:14:31.446Z,13.03
2018-10-05T05:15:36.951Z,13.03
2018-10-05T05:16:41.889Z,13.02
2018-10-05T05:17:45.977Z,13.02
2018-10-05T05:18:50.100Z,13.02
2018-10-05T05:19:54.229Z,13.02
2018-10-05T05:20:58.553Z,13.01
2018-10-05T05:22:02.686Z,13.01
2018-10-05T05:23:06.830Z,13.01
2018-10-05T05:24:11.638Z,13.02
2018-10-05T05:25:16.956Z,13.02
2018-10-05T05:26:21.768Z,13.01
2018-10-05T05:27:25.902Z,13.00
2018-10-05T05:28:30.678Z,13.01
2018-10-05T05:29:35.089Z,13.00
2018-10-05T05:30:39.279Z,13.01
2018-10-05T05:31:43.818Z,13.01
2018-10-05T05:32:49.005Z,13.01
2018-10-05T05:33:53.167Z,13.01
2018-10-05T05:34:57.366Z,13.01
2018-10-05T05:36:01.414Z,13.01
2018-10-05T05:37:05.623Z,13.01
2018-10-05T05:38:09.850Z,13.00
2018-10-05T05:39:14.006Z,13.01
2018-10-05T05:40:18.756Z,13.00
2018-10-05T05:41:24.092Z,12.99
2018-10-05T05:42:28.166Z,13.00
2018-10-05T05:43:33.067Z,13.00
2018-10-05T05:44:37.396Z,13.00
2018-10-05T05:45:41.592Z,12.99
2018-10-05T05:46:45.757Z,12.99
2018-10-05T05:47:51.676Z,12.98
2018-10-05T05:48:55.817Z,12.97
2018-10-05T05:50:00.013Z,12.96
2018-10-05T05:51:04.360Z,12.96
2018-10-05T05:52:10.110Z,12.95
2018-10-05T05:53:14.819Z,12.97
2018-10-05T05:54:18.943Z,12.96
2018-10-05T05:55:23.104Z,12.96
2018-10-05T05:56:27.353Z,12.95
2018-10-05T05:57:31.497Z,12.96
2018-10-05T05:58:35.666Z,12.96
2018-10-05T05:59:39.755Z,12.97
2018-10-05T06:00:44.408Z,12.97
2018-10-05T06:01:48.778Z,12.97
2018-10-05T06:02:54.701Z,12.99
2018-10-05T06:03:59.064Z,12.98
2018-10-05T06:05:03.239Z,12.98
2018-10-05T06:06:07.380Z,12.98
2018-10-05T06:07:11.579Z,12.99
2018-10-05T06:08:17.032Z,12.98
2018-10-05T06:09:23.618Z,12.98
2018-10-05T06:10:27.822Z,12.99
2018-10-05T06:11:32.151Z,12.99
2018-10-05T06:12:36.220Z,13.00
2018-10-05T06:13:41.006Z,13.00
2018-10-05T06:14:45.247Z,13.01
2018-10-05T06:15:50.632Z,13.01
2018-10-05T06:16:54.789Z,13.00
2018-10-05T06:17:58.841Z,13.01
2018-10-05T06:19:03.225Z,13.02
2018-10-05T06:20:08.515Z,13.03
2018-10-05T06:21:12.645Z,13.03
2018-10-05T06:22:17.061Z,13.04
2018-10-05T06:23:21.596Z,13.03
2018-10-05T06:24:25.657Z,13.05
2018-10-05T06:25:29.998Z,13.05
2018-10-05T06:26:34.193Z,13.06
2018-10-05T06:27:38.276Z,13.07
2018-10-05T06:28:43.198Z,13.09
2018-10-05T06:29:47.285Z,13.09
2018-10-05T06:30:58.809Z,13.12
2018-10-05T06:32:03.019Z,13.11
2018-10-05T06:33:07.220Z,13.12
2018-10-05T06:34:11.405Z,13.13
2018-10-05T06:35:15.637Z,13.15
2018-10-05T06:36:19.776Z,13.15
2018-10-05T06:37:27.374Z,13.16
2018-10-05T06:38:31.770Z,13.16
2018-10-05T06:39:35.952Z,13.18
2018-10-05T06:40:40.069Z,13.18
2018-10-05T06:41:44.382Z,13.20
2018-10-05T06:42:48.557Z,13.21
2018-10-05T06:43:52.912Z,13.22
2018-10-05T06:44:57.485Z,13.23
2018-10-05T06:46:01.690Z,13.24
2018-10-05T06:47:07.316Z,13.24
2018-10-05T06:48:12.393Z,13.25
2018-10-05T06:49:16.458Z,13.26
2018-10-05T06:50:20.960Z,13.27
2018-10-05T06:51:24.992Z,13.28
2018-10-05T06:52:29.141Z,13.30
2018-10-05T06:53:34.146Z,13.29
2018-10-05T06:54:38.273Z,13.31
2018-10-05T06:55:42.612Z,13.34
2018-10-05T06:56:46.851Z,13.34
2018-10-05T06:57:51.664Z,13.36
2018-10-05T06:58:56.616Z,13.38
2018-10-05T07:00:00.710Z,13.38
2018-10-05T07:01:04.988Z,13.40
2018-10-05T07:02:09.213Z,13.41
2018-10-05T07:03:13.372Z,13.43
2018-10-05T07:04:18.456Z,13.45
2018-10-05T07:05:23.197Z,13.46
2018-10-05T07:06:27.407Z,13.48
2018-10-05T07:07:31.575Z,13.49
2018-10-05T07:08:36.057Z,13.50
2018-10-05T07:09:40.220Z,13.51
2018-10-05T07:10:44.293Z,13.54
2018-10-05T07:11:48.378Z,13.53
2018-10-05T07:12:53.577Z,13.56
2018-10-05T07:13:57.686Z,13.57
2018-10-05T07:15:01.757Z,13.58
2018-10-05T07:16:06.212Z,13.59
2018-10-05T07:17:11.156Z,13.61
2018-10-05T07:18:15.166Z,13.63
2018-10-05T07:19:20.117Z,13.63
2018-10-05T07:20:24.489Z,13.65
2018-10-05T07:21:28.875Z,13.67
2018-10-05T07:22:33.659Z,13.68
2018-10-05T07:23:37.761Z,13.69
2018-10-05T07:24:42.065Z,13.71
2018-10-05T07:25:46.157Z,13.73
2018-10-05T07:26:50.772Z,13.73
2018-10-05T07:27:55.518Z,13.75
2018-10-05T07:29:00.543Z,13.77
2018-10-05T07:30:04.860Z,13.78
2018-10-05T07:31:10.213Z,13.79
2018-10-05T07:32:14.892Z,13.81
2018-10-05T07:33:19.586Z,13.84
2018-10-05T07:34:24.192Z,13.85
2018-10-05T07:35:28.387Z,13.87
2018-10-05T07:36:33.271Z,13.88
2018-10-05T07:37:37.380Z,13.90
2018-10-05T07:38:41.577Z,13.93
2018-10-05T07:39:46.307Z,13.93
2018-10-05T07:40:50.817Z,13.97
2018-10-05T07:41:55.017Z,13.99
2018-10-05T07:43:00.217Z,13.99
2018-10-05T07:44:04.309Z,14.01
2018-10-05T07:45:08.414Z,14.03
2018-10-05T07:46:12.490Z,14.04
2018-10-05T07:47:16.633Z,14.05
2018-10-05T07:48:20.778Z,14.07
2018-10-05T07:49:24.989Z,14.08
2018-10-05T07:50:29.145Z,14.10
2018-10-05T07:51:35.390Z,14.13
2018-10-05T07:52:39.459Z,14.15
2018-10-05T07:53:43.535Z,14.16
2018-10-05T07:54:47.631Z,14.18
2018-10-05T07:55:51.832Z,14.19
2018-10-05T07:56:55.918Z,14.20
2018-10-05T07:58:00.170Z,14.22
2018-10-05T07:59:05.517Z,14.24
2018-10-05T08:00:09.598Z,14.24
2018-10-05T08:01:14.237Z,14.26
2018-10-05T08:02:18.362Z,14.28
2018-10-05T08:03:22.461Z,14.29
2018-10-05T08:04:27.296Z,14.31
2018-10-05T08:05:31.591Z,14.32
2018-10-05T08:06:35.745Z,14.34
2018-10-05T08:07:39.932Z,14.37
2018-10-05T08:08:44.018Z,14.39
2018-10-05T08:09:49.302Z,14.40
2018-10-05T08:10:54.552Z,14.42
2018-10-05T08:11:58.754Z,14.43
2018-10-05T08:13:03.530Z,14.45
2018-10-05T08:14:07.661Z,14.47
2018-10-05T08:15:12.055Z,14.48
2018-10-05T08:16:16.116Z,14.51
2018-10-05T08:17:20.251Z,14.52
2018-10-05T08:18:24.485Z,14.54
2018-10-05T08:19:28.670Z,14.57
2018-10-05T08:20:32.895Z,14.59
2018-10-05T08:21:38.870Z,14.62
2018-10-05T08:22:43.082Z,14.65
2018-10-05T08:23:47.146Z,14.66
2018-10-05T08:24:51.249Z,14.67
2018-10-05T08:25:55.328Z,14.69
2018-10-05T08:27:00.511Z,14.70
2018-10-05T08:28:05.398Z,14.71
2018-10-05T08:29:10.368Z,14.73
2018-10-05T08:30:14.374Z,14.74
2018-10-05T08:31:18.603Z,14.76
2018-10-05T08:32:22.872Z,14.78
2018-10-05T08:33:27.038Z,14.80
2018-10-05T08:34:31.172Z,14.83
2018-10-05T08:35:35.313Z,14.84
2018-10-05T08:36:39.396Z,14.86
2018-10-05T08:37:44.229Z,14.88
2018-10-05T08:38:48.371Z,14.89
2018-10-05T08:39:52.627Z,14.90
2018-10-05T08:40:57.318Z,14.93
2018-10-05T08:42:01.977Z,14.94
2018-10-05T08:43:07.037Z,14.95
2018-10-05T08:44:12.398Z,14.97
2018-10-05T08:45:16.593Z,14.98
2018-10-05T08:46:20.677Z,15.00
2018-10-05T08:47:24.767Z,15.02
2018-10-05T08:48:29.644Z,15.06
2018-10-05T08:49:33.695Z,15.06
2018-10-05T08:50:37.826Z,15.08
2018-10-05T08:51:42.282Z,15.10
2018-10-05T08:52:46.349Z,15.12
2018-10-05T08:53:51.029Z,15.12
2018-10-05T08:54:55.935Z,15.16
2018-10-05T08:56:01.082Z,15.17
2018-10-05T08:57:05.114Z,15.19
2018-10-05T08:58:09.185Z,15.22
2018-10-05T08:59:13.457Z,15.25
2018-10-05T09:00:17.599Z,15.24
2018-10-05T09:01:21.689Z,15.28
2018-10-05T09:02:25.832Z,15.31
2018-10-05T09:03:29.959Z,15.32
2018-10-05T09:04:34.052Z,15.35
2018-10-05T09:05:39.068Z,15.38
2018-10-05T09:06:43.089Z,15.40
2018-10-05T09:07:47.237Z,15.43
2018-10-05T09:08:51.401Z,15.43
2018-10-05T09:09:55.530Z,15.44
2018-10-05T09:11:00.628Z,15.47
2018-10-05T09:12:05.160Z,15.47
2018-10-05T09:13:09.376Z,15.48
2018-10-05T09:14:13.596Z,15.50
2018-10-05T09:15:18.879Z,15.52
2018-10-05T09:16:23.653Z,15.53
2018-10-05T09:17:28.868Z,15.53
2018-10-05T09:18:33.001Z,15.55
2018-10-05T09:19:37.103Z,15.57
2018-10-05T09:20:41.209Z,15.59
2018-10-05T09:21:46.761Z,15.61
2018-10-05T09:22:50.963Z,15.63
2018-10-05T09:23:56.728Z,15.65
2018-10-05T09:25:00.855Z,15.67
2018-10-05T09:26:05.043Z,15.70
2018-10-05T09:27:10.383Z,15.72
2018-10-05T09:28:14.499Z,15.74
2018-10-05T09:29:18.548Z,15.76
2018-10-05T09:30:23.645Z,15.77
2018-10-05T09:31:27.830Z,15.78
2018-10-05T09:32:32.153Z,15.80
2018-10-05T09:33:36.309Z,15.82
2018-10-05T09:34:40.606Z,15.83
2018-10-05T09:35:45.431Z,15.85
2018-10-05T09:36:49.529Z,15.87
2018-10-05T09:37:53.817Z,15.90
2018-10-05T09:38:58.879Z,15.92
2018-10-05T09:40:04.738Z,15.94
2018-10-05T09:41:09.606Z,15.96
2018-10-05T09:42:13.692Z,15.98
2018-10-05T09:43:17.856Z,15.98
2018-10-05T09:44:22.124Z,16.00
2018-10-05T09:45:26.329Z,16.00
2018-10-05T09:46:30.523Z,16.03
2018-10-05T09:47:34.810Z,16.05
2018-10-05T09:48:39.053Z,16.05
2018-10-05T09:49:43.180Z,16.08
2018-10-05T09:50:47.389Z,16.08
2018-10-05T09:51:52.353Z,16.09
2018-10-05T09:52:56.777Z,16.12
2018-10-05T09:54:01.070Z,16.12
2018-10-05T09:55:05.414Z,16.14
2018-10-05T09:56:09.500Z,16.16
2018-10-05T09:57:13.898Z,16.19
2018-10-05T09:58:17.953Z,16.22
2018-10-05T09:59:22.262Z,16.24
2018-10-05T10:00:31.665Z,16.26
2018-10-05T10:01:41.236Z,16.27
2018-10-05T10:03:00.403Z,16.29
2018-10-05T10:04:04.561Z,16.31
2018-10-05T10:05:08.652Z,16.30
2018-10-05T10:06:13.496Z,16.31
2018-10-05T10:07:17.641Z,16.34
2018-10-05T10:08:21.795Z,16.35
2018-10-05T10:09:26.689Z,16.37
2018-10-05T10:10:30.732Z,16.40
2018-10-05T10:11:35.841Z,16.42
2018-10-05T10:12:40.621Z,16.44
2018-10-05T10:13:44.723Z,16.47
2018-10-05T10:14:48.940Z,16.49
2018-10-05T10:15:53.296Z,16.54
2018-10-05T10:16:57.998Z,16.57
2018-10-05T10:18:02.803Z,16.62
2018-10-05T10:19:07.873Z,16.65
2018-10-05T10:20:12.702Z,16.69
2018-10-05T10:21:16.882Z,16.70
2018-10-05T10:22:21.022Z,16.72
2018-10-05T10:23:25.161Z,16.75
2018-10-05T10:24:30.357Z,16.77
2018-10-05T10:25:34.547Z,16.80
2018-10-05T10:26:38.616Z,16.82
2018-10-05T10:27:42.784Z,16.85
2018-10-05T10:28:47.020Z,16.86
2018-10-05T10:29:51.000Z,16.89
2018-10-05T10:30:55.357Z,16.91
2018-10-05T10:32:00.505Z,16.95
2018-10-05T10:33:05.605Z,16.98
2018-10-05T10:34:10.137Z,17.01
2018-10-05T10:35:14.273Z,17.05
2018-10-05T10:36:20.811Z,17.09
2018-10-05T10:37:24.990Z,17.14
2018-10-05T10:38:29.190Z,17.17
2018-10-05T10:39:33.442Z,17.22
2018-10-05T10:40:37.583Z,17.26
2018-10-05T10:41:41.717Z,17.29
2018-10-05T10:42:46.948Z,17.32
2018-10-05T10:43:51.083Z,17.34
2018-10-05T10:44:55.428Z,17.36
2018-10-05T10:45:59.770Z,17.36
2018-10-05T10:47:04.803Z,17.36
2018-10-05T10:48:12.265Z,17.38
2018-10-05T10:49:16.476Z,17.39
2018-10-05T10:50:21.643Z,17.40
2018-10-05T10:51:25.868Z,17.42
2018-10-05T10:52:30.176Z,17.45
2018-10-05T10:53:35.436Z,17.47
2018-10-05T10:54:39.562Z,17.49
2018-10-05T10:55:43.670Z,17.51
2018-10-05T10:56:47.913Z,17.52
2018-10-05T10:57:52.150Z,17.53
2018-10-05T10:58:56.281Z,17.55
2018-10-05T11:00:01.292Z,17.57
2018-10-05T11:01:05.503Z,17.60
2018-10-05T11:02:10.871Z,17.61
2018-10-05T11:03:15.100Z,17.63
2018-10-05T11:04:19.186Z,17.62
2018-10-05T11:05:23.135Z,17.64
2018-10-05T11:06:27.289Z,17.64
2018-10-05T11:07:32.483Z,17.66
2018-10-05T11:08:36.544Z,17.66
2018-10-05T11:09:41.838Z,17.66
2018-10-05T11:10:46.127Z,17.67
2018-10-05T11:11:50.333Z,17.69
2018-10-05T11:12:55.067Z,17.70
2018-10-05T11:13:59.199Z,17.73
2018-10-05T11:15:03.399Z,17.76
2018-10-05T11:16:07.690Z,17.78
2018-10-05T11:17:11.919Z,17.79
2018-10-05T11:18:16.041Z,17.81
2018-10-05T11:19:20.263Z,17.83
2018-10-05T11:20:24.435Z,17.83
2018-10-05T11:21:29.238Z,17.84
2018-10-05T11:22:33.570Z,17.86
2018-10-05T11:23:38.403Z,17.87
2018-10-05T11:24:42.462Z,17.90
2018-10-05T11:25:47.569Z,17.93
2018-10-05T11:26:51.738Z,17.98
2018-10-05T11:27:55.949Z,18.00
2018-10-05T11:29:00.236Z,18.00
2018-10-05T11:30:04.783Z,18.00
2018-10-05T11:31:09.030Z,18.01
2018-10-05T11:32:13.122Z,18.04
2018-10-05T11:33:17.549Z,18.05
2018-10-05T11:34:21.590Z,18.05
2018-10-05T11:35:26.735Z,18.09
2018-10-05T11:36:30.930Z,18.12
2018-10-05T11:37:35.119Z,18.16
2018-10-05T11:38:39.352Z,18.20
2018-10-05T11:39:43.493Z,18.24
2018-10-05T11:40:48.300Z,18.26
2018-10-05T11:41:53.218Z,18.26
2018-10-05T11:42:58.175Z,18.28
2018-10-05T11:44:02.447Z,18.29
2018-10-05T11:45:06.689Z,18.31
2018-10-05T11:46:11.493Z,18.31
2018-10-05T11:47:16.482Z,18.32
2018-10-05T11:48:20.598Z,18.32
2018-10-05T11:49:24.738Z,18.34
2018-10-05T11:50:28.923Z,18.37
2018-10-05T11:51:33.116Z,18.37
2018-10-05T11:52:37.244Z,18.40
2018-10-05T11:53:41.486Z,18.41
2018-10-05T11:54:45.545Z,18.44
2018-10-05T11:55:49.699Z,18.44
2018-10-05T11:56:53.797Z,18.46
2018-10-05T11:57:57.921Z,18.48
2018-10-05T11:59:02.034Z,18.52
2018-10-05T12:00:06.365Z,18.55
2018-10-05T12:01:10.457Z,18.57
2018-10-05T12:02:14.731Z,18.60
2018-10-05T12:03:18.880Z,18.63
2018-10-05T12:04:23.010Z,18.64
2018-10-05T12:05:27.147Z,18.64
2018-10-05T12:06:31.289Z,18.66
2018-10-05T12:07:36.114Z,18.67
2018-10-05T12:08:40.321Z,18.67
2018-10-05T12:09:44.436Z,18.70
2018-10-05T12:10:48.602Z,18.72
2018-10-05T12:11:52.810Z,18.73
2018-10-05T12:12:56.912Z,18.75
2018-10-05T12:14:01.307Z,18.76
2018-10-05T12:15:05.458Z,18.78
2018-10-05T12:16:09.676Z,18.80
2018-10-05T12:17:13.793Z,18.82
2018-10-05T12:18:17.934Z,18.84
2018-10-05T12:19:21.950Z,18.85
2018-10-05T12:20:26.047Z,18.88
2018-10-05T12:21:30.182Z,18.90
2018-10-05T12:22:34.392Z,18.91
2018-10-05T12:23:38.604Z,18.92
2018-10-05T12:24:42.700Z,18.92
2018-10-05T12:25:46.832Z,18.92
2018-10-05T12:26:50.856Z,18.92
2018-10-05T12:27:55.163Z,18.93
2018-10-05T12:28:59.279Z,18.93
2018-10-05T12:30:03.675Z,18.94
2018-10-05T12:31:07.849Z,18.95
2018-10-05T12:32:11.916Z,18.98
2018-10-05T12:33:16.101Z,19.01
2018-10-05T12:34:20.321Z,19.04
2018-10-05T12:35:24.613Z,19.06
2018-10-05T12:36:28.668Z,19.09
2018-10-05T12:37:32.795Z,19.10
2018-10-05T12:38:36.941Z,19.12
2018-10-05T12:39:41.068Z,19.13
2018-10-05T12:40:45.169Z,19.14
2018-10-05T12:41:49.282Z,19.14
2018-10-05T12:42:53.299Z,19.15
2018-10-05T12:43:57.402Z,19.17
2018-10-05T12:45:01.463Z,19.19
2018-10-05T12:46:05.837Z,19.22
2018-10-05T12:47:09.960Z,19.25
2018-10-05T12:48:14.021Z,19.28
2018-10-05T12:49:18.178Z,19.31
2018-10-05T12:50:22.280Z,19.33
2018-10-05T12:51:26.321Z,19.34
2018-10-05T12:52:31.004Z,19.35
2018-10-05T12:53:35.125Z,19.36
2018-10-05T12:54:39.295Z,19.36
2018-10-05T12:55:43.353Z,19.38
2018-10-05T12:56:47.478Z,19.39
2018-10-05T12:57:51.520Z,19.42
2018-10-05T12:58:55.663Z,19.43
2018-10-05T12:59:59.750Z,19.45
2018-10-05T13:01:03.870Z,19.47
2018-10-05T13:02:08.175Z,19.49
2018-10-05T13:03:13.063Z,19.50
2018-10-05T13:04:18.004Z,19.50
2018-10-05T13:05:22.166Z,19.50
2018-10-05T13:06:26.328Z,19.51
2018-10-05T13:07:32.237Z,19.52
2018-10-05T13:08:37.274Z,19.53
2018-10-05T13:09:41.351Z,19.55
2018-10-05T13:10:45.477Z,19.53
2018-10-05T13:11:49.803Z,19.54
2018-10-05T13:12:53.895Z,19.52
2018-10-05T13:13:57.977Z,19.53
2018-10-05T13:15:02.137Z,19.54
2018-10-05T13:16:07.715Z,19.57
2018-10-05T13:17:12.704Z,19.60
2018-10-05T13:18:18.083Z,19.63
2018-10-05T13:19:22.439Z,19.63
2018-10-05T13:20:26.568Z,19.64
2018-10-05T13:21:32.051Z,19.65
2018-10-05T13:22:36.142Z,19.64
2018-10-05T13:23:41.491Z,19.66
2018-10-05T13:24:45.689Z,19.66
2018-10-05T13:25:49.740Z,19.67
2018-10-05T13:26:53.839Z,19.69
2018-10-05T13:27:58.637Z,19.73
2018-10-05T13:29:03.211Z,19.74
2018-10-05T13:30:07.913Z,19.75
2018-10-05T13:31:12.175Z,19.76
2018-10-05T13:32:16.514Z,19.77
2018-10-05T13:33:20.786Z,19.78
2018-10-05T13:34:25.160Z,19.79
2018-10-05T13:35:29.296Z,19.79
2018-10-05T13:36:33.495Z,19.80
2018-10-05T13:37:38.448Z,19.80
2018-10-05T13:38:42.627Z,19.80
2018-10-05T13:39:46.706Z,19.79
2018-10-05T13:40:51.943Z,19.78
2018-10-05T13:41:56.240Z,19.79
2018-10-05T13:43:01.626Z,19.79
2018-10-05T13:44:05.878Z,19.80
2018-10-05T13:45:10.210Z,19.81
2018-10-05T13:46:14.991Z,19.82
2018-10-05T13:47:19.111Z,19.82
2018-10-05T13:48:23.331Z,19.84
2018-10-05T13:49:27.439Z,19.85
2018-10-05T13:50:31.715Z,19.85